293  
UXUS97 KREV 171340  
SRGREV  
 
SOARING FORECAST  
NATIONAL WEATHER SERVICE - RENO NV  
700 AM PDT MON JUN 17 2019  
 
THIS SOARING FORECAST IS FOR THE EASTERN SIERRA AND WESTERN NEVADA  
WITH SPECIFIC INDICES FOR THE GREATER RENO AREA.  
 
THIS FORECAST IS PREPARED DAILY BY 700 AM AND IS NOT UPDATED.  
 
FOR CURRENT FLIGHT CONDITIONS...FORECASTS...AND ADVISORIES...ACCESS  
YOUR LOCAL BRIEFING OUTLET OR FLIGHT SERVICE STATION.  
 
*******************************************************************  
FORECASTED LOCAL INDICES FOR RENO: TODAY YESTERDAY  
FORECASTED MAX TEMP AT RENO (DEG F)..... 91 90  
FORECASTED TRIGGER TEMPERATURE (DEG F).. 77 77  
EXCEEDED YESTERDAY BY 955 AM PDT  
FORECASTED MAXIMUM ALTITUDE (FT MSL).... 17800 17400  
FORECASTED SOARING INDEX (FPM).......... 1194 1092  
FORECASTED K-INDEX.........VALID 18Z.... 28 29  
FORECASTED K-INDEX.........VALID 00Z.... 23 27  
FORECASTED LIFTED INDEX....VALID 18Z.... 0 -1  
FORECASTED LIFTED INDEX....VALID 00Z.... 0 0  
 
AFTERNOON WINDS ALOFT FORECAST  
MSL (FT) WIND/TEMP  
9000 0210/+16  
10000 0210/+13  
12000 0210/+07  
14000 2011/+00  
16000 2612/-06  
18000 3315/-12  
24000 3515/-23  
30000 0125/-39  
34000 0141/-48  
39000 0156/-57  
 
SLIDE MOUNTAIN DATA:  
DATE TIME TEMP DEWPT RH WIND (MPH)  
(F) (F) | DIR SPEED GUST  
2019-06-17 05:20 50 35 44 | 027 21 24  
2019-06-17 05:00 50 35 44 | 026 21 23  
2019-06-17 04:50 50 35 44 | 031 20 23  
2019-06-17 04:30 50 35 44 | 031 20 23  
 
SIERRA CREST 8700 FT DATA:  
DATE TIME TEMP RH WIND  
DIR SPEED GUST  
2019-06-17 0600 50 55 055 25 28  
2019-06-17 0545 50 53 058 25 29  
2019-06-17 0530 51 52 056 25 30  
2019-06-17 0515 51 55 058 21 24  
 
RENO TAF FORECAST:  
KRNO 171120Z 1712/1812 VRB03KT P6SM SCT120 SCT200  
FM171900 05008KT P6SM SCT100 SCT180  
FM180300 VRB03KT P6SM SCT150  
 
CARSON CITY TAF FORECAST:  
KCXP 171120Z 1712/1812 VRB04KT P6SM SCT120 SCT200  
FM171900 06010G15KT P6SM VCSH SCT090 SCT180  
FM180300 VRB03KT P6SM SCT150  
 
OUTLOOK FOR THE RENO-CARSON CITY-MINDEN AREA:   
TUESDAY
 
SUNNY. HIGHS 88 TO 93. NORTH WINDS 10 TO 15 MPH.  
 
SUNRISE AND SUNSET  
JUNE 17 2019..........SUNRISE 531 AM PDT SUNSET 829 PM PDT  
JUNE 18 2019..........SUNRISE 532 AM PDT SUNSET 829 PM PDT  
 
CLICK HERE TO GO TO PREVIOUS BULLETINS.

The Nexlab NV Page
The Nexlab CA Page Main Text Page